sensor_id;sensor_type;location;lat;lon;timestamp;pressure;altitude;pressure_sealevel;temperature;humidity
5500;BME280;2772;42.700;23.304;2024-03-23T00:53:52;95213.06;;;8.29;100.00
5500;BME280;2772;42.700;23.304;2024-03-23T00:56:18;95205.50;;;8.23;100.00
5500;BME280;2772;42.700;23.304;2024-03-23T00:58:44;95201.75;;;8.24;100.00
5500;BME280;2772;42.700;23.304;2024-03-23T01:01:11;95203.25;;;8.30;100.00
5500;BME280;2772;42.700;23.304;2024-03-23T01:03:37;95205.19;;;8.05;100.00
5500;BME280;2772;42.700;23.304;2024-03-23T01:06:03;95208.69;;;8.20;97.52
5500;BME280;2772;42.700;23.304;2024-03-23T01:08:29;95200.94;;;8.23;94.91
5500;BME280;2772;42.700;23.304;2024-03-23T01:10:58;95204.44;;;8.19;94.62
5500;BME280;2772;42.700;23.304;2024-03-23T01:13:25;95193.31;;;8.17;94.42
5500;BME280;2772;42.700;23.304;2024-03-23T01:15:52;95188.13;;;8.12;95.42
5500;BME280;2772;42.700;23.304;2024-03-23T01:18:19;95198.28;;;8.04;94.94
5500;BME280;2772;42.700;23.304;2024-03-23T01:20:46;95193.78;;;7.86;95.89
5500;BME280;2772;42.700;23.304;2024-03-23T01:23:12;95196.84;;;7.75;96.88
5500;BME280;2772;42.700;23.304;2024-03-23T01:25:38;95198.22;;;7.54;98.79
5500;BME280;2772;42.700;23.304;2024-03-23T01:28:06;95201.06;;;7.57;99.13
5500;BME280;2772;42.700;23.304;2024-03-23T01:30:33;95199.00;;;7.31;100.00
5500;BME280;2772;42.700;23.304;2024-03-23T01:32:58;95213.28;;;7.35;100.00
5500;BME280;2772;42.700;23.304;2024-03-23T01:35:25;95210.28;;;7.18;100.00
5500;BME280;2772;42.700;23.304;2024-03-23T01:37:52;95205.47;;;7.20;100.00
5500;BME280;2772;42.700;23.304;2024-03-23T01:40:19;95208.88;;;7.02;100.00
5500;BME280;2772;42.700;23.304;2024-03-23T01:42:55;95198.19;;;6.88;100.00
5500;BME280;2772;42.700;23.304;2024-03-23T01:45:23;95202.34;;;6.94;100.00
5500;BME280;2772;42.700;23.304;2024-03-23T01:47:49;95197.19;;;6.79;100.00
5500;BME280;2772;42.700;23.304;2024-03-23T01:50:16;95197.53;;;6.73;100.00
5500;BME280;2772;42.700;23.304;2024-03-23T01:52:42;95197.31;;;6.69;100.00
5500;BME280;2772;42.700;23.304;2024-03-23T01:55:09;95200.66;;;6.75;100.00
5500;BME280;2772;42.700;23.304;2024-03-23T01:57:35;95207.03;;;6.74;100.00
5500;BME280;2772;42.700;23.304;2024-03-23T02:00:03;95195.78;;;6.63;100.00
5500;BME280;2772;42.700;23.304;2024-03-23T02:02:30;95198.38;;;6.68;100.00
5500;BME280;2772;42.700;23.304;2024-03-23T02:04:57;95199.94;;;6.69;100.00
5500;BME280;2772;42.700;23.304;2024-03-23T02:07:22;95201.56;;;6.65;100.00
5500;BME280;2772;42.700;23.304;2024-03-23T02:09:50;95204.63;;;6.48;100.00
5500;BME280;2772;42.700;23.304;2024-03-23T02:12:17;95211.63;;;6.34;100.00
5500;BME280;2772;42.700;23.304;2024-03-23T02:14:44;95213.53;;;6.29;100.00
5500;BME280;2772;42.700;23.304;2024-03-23T02:17:10;95207.16;;;6.30;100.00
5500;BME280;2772;42.700;23.304;2024-03-23T02:19:38;95214.03;;;6.31;100.00
5500;BME280;2772;42.700;23.304;2024-03-23T02:22:04;95215.44;;;6.18;100.00
5500;BME280;2772;42.700;23.304;2024-03-23T02:24:32;95210.59;;;6.30;100.00
5500;BME280;2772;42.700;23.304;2024-03-23T02:26:59;95216.50;;;6.17;100.00
5500;BME280;2772;42.700;23.304;2024-03-23T02:29:26;95214.72;;;6.08;100.00
5500;BME280;2772;42.700;23.304;2024-03-23T02:31:51;95222.41;;;6.04;100.00
5500;BME280;2772;42.700;23.304;2024-03-23T02:34:18;95221.56;;;6.14;100.00
5500;BME280;2772;42.700;23.304;2024-03-23T02:36:44;95220.50;;;6.15;100.00
5500;BME280;2772;42.700;23.304;2024-03-23T02:39:10;95215.34;;;5.95;100.00
5500;BME280;2772;42.700;23.304;2024-03-23T02:41:38;95215.31;;;6.00;100.00
5500;BME280;2772;42.700;23.304;2024-03-23T02:44:05;95213.47;;;6.00;100.00
5500;BME280;2772;42.700;23.304;2024-03-23T02:46:31;95212.63;;;6.05;100.00
5500;BME280;2772;42.700;23.304;2024-03-23T02:48:57;95206.56;;;6.04;100.00
5500;BME280;2772;42.700;23.304;2024-03-23T02:51:23;95209.53;;;5.98;100.00
5500;BME280;2772;42.700;23.304;2024-03-23T02:53:50;95211.06;;;6.04;100.00
5500;BME280;2772;42.700;23.304;2024-03-23T02:56:15;95205.25;;;6.02;100.00
5500;BME280;2772;42.700;23.304;2024-03-23T02:58:43;95213.63;;;6.14;100.00
5500;BME280;2772;42.700;23.304;2024-03-23T03:01:09;95198.25;;;6.21;100.00
5500;BME280;2772;42.700;23.304;2024-03-23T03:03:36;95200.31;;;6.29;100.00
5500;BME280;2772;42.700;23.304;2024-03-23T03:06:02;95198.75;;;6.23;100.00
5500;BME280;2772;42.700;23.304;2024-03-23T03:08:29;95201.63;;;6.26;100.00
5500;BME280;2772;42.700;23.304;2024-03-23T03:10:54;95200.81;;;6.31;100.00
5500;BME280;2772;42.700;23.304;2024-03-23T03:13:21;95196.59;;;6.30;100.00
5500;BME280;2772;42.700;23.304;2024-03-23T03:15:48;95205.38;;;6.20;100.00
5500;BME280;2772;42.700;23.304;2024-03-23T03:18:15;95206.16;;;6.26;100.00
5500;BME280;2772;42.700;23.304;2024-03-23T03:20:41;95206.47;;;6.19;100.00
5500;BME280;2772;42.700;23.304;2024-03-23T03:23:07;95208.78;;;6.26;100.00
5500;BME280;2772;42.700;23.304;2024-03-23T03:25:33;95209.88;;;6.20;100.00
5500;BME280;2772;42.700;23.304;2024-03-23T03:28:00;95205.44;;;6.10;100.00
5500;BME280;2772;42.700;23.304;2024-03-23T03:30:27;95209.88;;;6.20;100.00
5500;BME280;2772;42.700;23.304;2024-03-23T03:32:55;95211.94;;;6.28;100.00
5500;BME280;2772;42.700;23.304;2024-03-23T03:35:21;95204.56;;;6.25;100.00
5500;BME280;2772;42.700;23.304;2024-03-23T03:37:48;95210.91;;;6.24;100.00
5500;BME280;2772;42.700;23.304;2024-03-23T03:40:13;95208.28;;;6.24;100.00
5500;BME280;2772;42.700;23.304;2024-03-23T03:42:41;95208.53;;;6.27;100.00
5500;BME280;2772;42.700;23.304;2024-03-23T03:45:07;95198.03;;;6.12;100.00
5500;BME280;2772;42.700;23.304;2024-03-23T03:47:34;95210.22;;;6.13;100.00
5500;BME280;2772;42.700;23.304;2024-03-23T03:50:01;95209.69;;;6.11;100.00
5500;BME280;2772;42.700;23.304;2024-03-23T03:52:28;95217.34;;;6.13;100.00
5500;BME280;2772;42.700;23.304;2024-03-23T03:55:01;95212.50;;;6.20;100.00
5500;BME280;2772;42.700;23.304;2024-03-23T03:57:28;95205.38;;;6.20;100.00
5500;BME280;2772;42.700;23.304;2024-03-23T03:59:54;95207.22;;;6.20;100.00
5500;BME280;2772;42.700;23.304;2024-03-23T04:02:21;95212.03;;;6.18;100.00
5500;BME280;2772;42.700;23.304;2024-03-23T04:04:47;95221.06;;;6.12;100.00
5500;BME280;2772;42.700;23.304;2024-03-23T04:07:15;95216.34;;;6.04;100.00
5500;BME280;2772;42.700;23.304;2024-03-23T04:09:41;95215.06;;;5.96;100.00
5500;BME280;2772;42.700;23.304;2024-03-23T04:12:08;95212.16;;;5.98;100.00
5500;BME280;2772;42.700;23.304;2024-03-23T04:14:34;95217.97;;;5.95;100.00
5500;BME280;2772;42.700;23.304;2024-03-23T04:17:01;95216.91;;;6.01;100.00
5500;BME280;2772;42.700;23.304;2024-03-23T04:19:28;95224.06;;;5.95;100.00
5500;BME280;2772;42.700;23.304;2024-03-23T04:21:54;95218.47;;;6.02;100.00
5500;BME280;2772;42.700;23.304;2024-03-23T04:24:22;95225.03;;;6.09;100.00
5500;BME280;2772;42.700;23.304;2024-03-23T04:26:50;95228.81;;;5.98;100.00
5500;BME280;2772;42.700;23.304;2024-03-23T04:29:15;95221.66;;;6.04;100.00
5500;BME280;2772;42.700;23.304;2024-03-23T04:31:42;95224.00;;;6.05;100.00
5500;BME280;2772;42.700;23.304;2024-03-23T04:34:08;95225.38;;;5.98;100.00
5500;BME280;2772;42.700;23.304;2024-03-23T04:36:35;95221.84;;;6.07;100.00
5500;BME280;2772;42.700;23.304;2024-03-23T04:39:02;95222.69;;;6.03;100.00
5500;BME280;2772;42.700;23.304;2024-03-23T04:41:30;95223.25;;;6.00;100.00
5500;BME280;2772;42.700;23.304;2024-03-23T04:43:58;95228.78;;;6.03;100.00
5500;BME280;2772;42.700;23.304;2024-03-23T04:46:25;95233.81;;;6.00;100.00
5500;BME280;2772;42.700;23.304;2024-03-23T04:48:51;95230.91;;;5.96;100.00
5500;BME280;2772;42.700;23.304;2024-03-23T04:51:21;95228.75;;;6.08;100.00
5500;BME280;2772;42.700;23.304;2024-03-23T04:53:48;95240.09;;;6.09;100.00
5500;BME280;2772;42.700;23.304;2024-03-23T04:56:15;95238.53;;;6.03;100.00
5500;BME280;2772;42.700;23.304;2024-03-23T04:58:43;95244.94;;;5.97;100.00
5500;BME280;2772;42.700;23.304;2024-03-23T05:01:10;95235.31;;;6.11;100.00
5500;BME280;2772;42.700;23.304;2024-03-23T05:03:36;95232.63;;;6.21;100.00
5500;BME280;2772;42.700;23.304;2024-03-23T05:06:03;95236.31;;;6.20;100.00
5500;BME280;2772;42.700;23.304;2024-03-23T05:08:29;95234.22;;;6.17;100.00
5500;BME280;2772;42.700;23.304;2024-03-23T05:10:55;95233.19;;;6.18;100.00
5500;BME280;2772;42.700;23.304;2024-03-23T05:13:21;95234.50;;;6.15;100.00
5500;BME280;2772;42.700;23.304;2024-03-23T05:15:52;95235.25;;;6.26;100.00
5500;BME280;2772;42.700;23.304;2024-03-23T05:18:18;95233.38;;;6.26;100.00
5500;BME280;2772;42.700;23.304;2024-03-23T05:20:45;95233.38;;;6.26;100.00
5500;BME280;2772;42.700;23.304;2024-03-23T05:23:11;95229.97;;;6.21;100.00
5500;BME280;2772;42.700;23.304;2024-03-23T05:25:37;95231.69;;;6.35;100.00
5500;BME280;2772;42.700;23.304;2024-03-23T05:28:04;95224.41;;;6.22;100.00
5500;BME280;2772;42.700;23.304;2024-03-23T05:30:30;95224.88;;;6.29;100.00
5500;BME280;2772;42.700;23.304;2024-03-23T05:32:57;95230.94;;;6.35;100.00
5500;BME280;2772;42.700;23.304;2024-03-23T05:35:24;95232.22;;;6.37;100.00
5500;BME280;2772;42.700;23.304;2024-03-23T05:37:50;95234.34;;;6.35;100.00
5500;BME280;2772;42.700;23.304;2024-03-23T05:40:16;95231.47;;;6.32;100.00
5500;BME280;2772;42.700;23.304;2024-03-23T05:42:42;95226.75;;;6.29;100.00
5500;BME280;2772;42.700;23.304;2024-03-23T05:45:09;95229.44;;;6.24;100.00
5500;BME280;2772;42.700;23.304;2024-03-23T05:47:35;95228.00;;;6.36;100.00
5500;BME280;2772;42.700;23.304;2024-03-23T05:50:03;95226.81;;;6.53;100.00
5500;BME280;2772;42.700;23.304;2024-03-23T05:52:29;95234.47;;;6.20;100.00
5500;BME280;2772;42.700;23.304;2024-03-23T05:54:56;95236.00;;;6.26;100.00
5500;BME280;2772;42.700;23.304;2024-03-23T05:57:22;95228.44;;;6.15;100.00
5500;BME280;2772;42.700;23.304;2024-03-23T05:59:48;95232.44;;;6.07;100.00
5500;BME280;2772;42.700;23.304;2024-03-23T06:02:14;95227.41;;;6.11;100.00
5500;BME280;2772;42.700;23.304;2024-03-23T06:04:47;95229.22;;;6.15;100.00
5500;BME280;2772;42.700;23.304;2024-03-23T06:07:14;95221.28;;;6.15;100.00
5500;BME280;2772;42.700;23.304;2024-03-23T06:09:41;95227.50;;;5.96;100.00
5500;BME280;2772;42.700;23.304;2024-03-23T06:12:07;95233.66;;;6.20;100.00
5500;BME280;2772;42.700;23.304;2024-03-23T06:14:34;95233.66;;;6.20;100.00
5500;BME280;2772;42.700;23.304;2024-03-23T06:17:00;95227.75;;;6.33;100.00
5500;BME280;2772;42.700;23.304;2024-03-23T06:19:27;95220.69;;;6.57;100.00
5500;BME280;2772;42.700;23.304;2024-03-23T06:21:53;95220.28;;;6.74;100.00
5500;BME280;2772;42.700;23.304;2024-03-23T06:24:22;95213.59;;;6.81;100.00
5500;BME280;2772;42.700;23.304;2024-03-23T06:26:47;95225.19;;;6.85;100.00
5500;BME280;2772;42.700;23.304;2024-03-23T06:29:14;95221.88;;;6.98;100.00
5500;BME280;2772;42.700;23.304;2024-03-23T06:31:40;95221.84;;;7.03;100.00
5500;BME280;2772;42.700;23.304;2024-03-23T06:34:06;95222.47;;;7.19;99.79
5500;BME280;2772;42.700;23.304;2024-03-23T06:36:32;95218.19;;;7.23;99.27
5500;BME280;2772;42.700;23.304;2024-03-23T06:38:59;95219.84;;;7.37;97.19
5500;BME280;2772;42.700;23.304;2024-03-23T06:41:26;95213.13;;;7.45;96.68
5500;BME280;2772;42.700;23.304;2024-03-23T06:43:53;95221.78;;;7.55;96.06
5500;BME280;2772;42.700;23.304;2024-03-23T06:46:19;95219.19;;;7.50;95.53
5500;BME280;2772;42.700;23.304;2024-03-23T06:48:45;95221.78;;;7.55;96.47
5500;BME280;2772;42.700;23.304;2024-03-23T06:51:11;95215.41;;;7.75;95.35
5500;BME280;2772;42.700;23.304;2024-03-23T06:53:38;95218.78;;;7.80;94.02
5500;BME280;2772;42.700;23.304;2024-03-23T06:56:04;95212.47;;;7.95;93.54
5500;BME280;2772;42.700;23.304;2024-03-23T06:58:32;95212.34;;;8.05;92.61
5500;BME280;2772;42.700;23.304;2024-03-23T07:00:58;95212.19;;;8.15;99.02
5500;BME280;2772;42.700;23.304;2024-03-23T07:03:24;95210.56;;;8.38;99.38
5500;BME280;2772;42.700;23.304;2024-03-23T07:05:51;95206.38;;;8.50;95.39
5500;BME280;2772;42.700;23.304;2024-03-23T07:08:18;95204.94;;;8.71;97.25
5500;BME280;2772;42.700;23.304;2024-03-23T07:10:47;95202.00;;;8.73;94.29
5500;BME280;2772;42.700;23.304;2024-03-23T07:13:14;95201.03;;;8.82;91.18
5500;BME280;2772;42.700;23.304;2024-03-23T07:15:41;95197.19;;;8.88;88.96
5500;BME280;2772;42.700;23.304;2024-03-23T07:18:08;95194.06;;;9.00;90.92
5500;BME280;2772;42.700;23.304;2024-03-23T07:20:33;95193.09;;;9.09;91.02
5500;BME280;2772;42.700;23.304;2024-03-23T07:23:01;95196.25;;;9.25;88.69
5500;BME280;2772;42.700;23.304;2024-03-23T07:25:28;95191.44;;;9.27;87.03
5500;BME280;2772;42.700;23.304;2024-03-23T07:27:54;95187.81;;;9.36;89.56
5500;BME280;2772;42.700;23.304;2024-03-23T07:30:21;95191.94;;;9.42;85.74
5500;BME280;2772;42.700;23.304;2024-03-23T07:32:48;95187.78;;;9.50;87.53
5500;BME280;2772;42.700;23.304;2024-03-23T07:35:15;95179.13;;;9.58;87.04
5500;BME280;2772;42.700;23.304;2024-03-23T07:37:41;95185.94;;;9.50;84.69
5500;BME280;2772;42.700;23.304;2024-03-23T07:40:08;95185.91;;;9.64;85.15
5500;BME280;2772;42.700;23.304;2024-03-23T07:42:35;95184.22;;;9.68;84.83
5500;BME280;2772;42.700;23.304;2024-03-23T07:45:01;95186.16;;;9.76;83.66
5500;BME280;2772;42.700;23.304;2024-03-23T07:47:27;95184.59;;;9.75;83.67
5500;BME280;2772;42.700;23.304;2024-03-23T07:49:55;95175.94;;;9.69;80.73
5500;BME280;2772;42.700;23.304;2024-03-23T07:52:21;95175.94;;;9.69;85.17
5500;BME280;2772;42.700;23.304;2024-03-23T07:54:48;95179.00;;;9.77;83.96
5500;BME280;2772;42.700;23.304;2024-03-23T07:57:13;95163.31;;;9.75;82.08
5500;BME280;2772;42.700;23.304;2024-03-23T07:59:40;95169.50;;;9.84;83.17
5500;BME280;2772;42.700;23.304;2024-03-23T08:02:06;95173.81;;;9.94;82.69
5500;BME280;2772;42.700;23.304;2024-03-23T08:04:32;95169.53;;;10.06;84.95
5500;BME280;2772;42.700;23.304;2024-03-23T08:07:00;95166.19;;;10.14;83.17
5500;BME280;2772;42.700;23.304;2024-03-23T08:09:27;95162.22;;;10.25;85.39
5500;BME280;2772;42.700;23.304;2024-03-23T08:11:53;95158.34;;;10.31;82.74
5500;BME280;2772;42.700;23.304;2024-03-23T08:14:19;95161.22;;;10.43;82.17
5500;BME280;2772;42.700;23.304;2024-03-23T08:16:45;95164.63;;;10.57;79.97
5500;BME280;2772;42.700;23.304;2024-03-23T08:19:14;95161.50;;;10.55;77.27
5500;BME280;2772;42.700;23.304;2024-03-23T08:21:40;95151.50;;;10.39;77.24
5500;BME280;2772;42.700;23.304;2024-03-23T08:24:08;95155.00;;;10.48;79.83
5500;BME280;2772;42.700;23.304;2024-03-23T08:26:34;95153.91;;;10.49;82.09
5500;BME280;2772;42.700;23.304;2024-03-23T08:29:02;95150.56;;;10.65;83.61
5500;BME280;2772;42.700;23.304;2024-03-23T08:31:28;95151.34;;;10.66;79.90
5500;BME280;2772;42.700;23.304;2024-03-23T08:33:55;95147.41;;;10.63;79.61
5500;BME280;2772;42.700;23.304;2024-03-23T08:36:21;95140.59;;;10.71;79.59
5500;BME280;2772;42.700;23.304;2024-03-23T08:38:47;95140.59;;;10.79;77.68
5500;BME280;2772;42.700;23.304;2024-03-23T08:41:17;95138.00;;;10.88;78.13
5500;BME280;2772;42.700;23.304;2024-03-23T08:43:43;95136.16;;;10.97;76.77
5500;BME280;2772;42.700;23.304;2024-03-23T08:46:10;95140.19;;;10.94;74.95
5500;BME280;2772;42.700;23.304;2024-03-23T08:48:38;95127.88;;;11.07;76.71
5500;BME280;2772;42.700;23.304;2024-03-23T08:51:05;95124.13;;;11.16;75.44
5500;BME280;2772;42.700;23.304;2024-03-23T08:53:32;95125.13;;;11.29;75.38
5500;BME280;2772;42.700;23.304;2024-03-23T08:55:59;95122.00;;;11.36;74.33
5500;BME280;2772;42.700;23.304;2024-03-23T08:58:28;95117.94;;;11.47;76.71
5500;BME280;2772;42.700;23.304;2024-03-23T09:00:55;95110.13;;;11.59;77.06
5500;BME280;2772;42.700;23.304;2024-03-23T09:03:22;95109.56;;;11.70;75.93
5500;BME280;2772;42.700;23.304;2024-03-23T09:05:49;95107.34;;;11.81;74.62
5500;BME280;2772;42.700;23.304;2024-03-23T09:08:15;95097.78;;;11.80;71.69
5500;BME280;2772;42.700;23.304;2024-03-23T09:10:42;95096.38;;;11.91;73.70
5500;BME280;2772;42.700;23.304;2024-03-23T09:13:09;95092.75;;;12.04;71.89
5500;BME280;2772;42.700;23.304;2024-03-23T09:15:46;95088.84;;;12.10;69.84
5500;BME280;2772;42.700;23.304;2024-03-23T09:18:13;95091.66;;;12.22;71.16
5500;BME280;2772;42.700;23.304;2024-03-23T09:20:38;95087.09;;;12.22;67.47
5500;BME280;2772;42.700;23.304;2024-03-23T09:23:05;95080.44;;;12.37;69.25
5500;BME280;2772;42.700;23.304;2024-03-23T09:25:31;95073.53;;;12.44;71.43
5500;BME280;2772;42.700;23.304;2024-03-23T09:27:58;95070.84;;;12.53;67.64
5500;BME280;2772;42.700;23.304;2024-03-23T09:30:24;95055.28;;;12.55;65.38
5500;BME280;2772;42.700;23.304;2024-03-23T09:32:54;95055.25;;;12.63;65.81
5500;BME280;2772;42.700;23.304;2024-03-23T09:35:19;95046.75;;;12.61;63.68
5500;BME280;2772;42.700;23.304;2024-03-23T09:37:46;95057.88;;;12.72;62.82
5500;BME280;2772;42.700;23.304;2024-03-23T09:40:12;95053.03;;;12.65;63.81
5500;BME280;2772;42.700;23.304;2024-03-23T09:42:40;95045.91;;;12.78;67.44
5500;BME280;2772;42.700;23.304;2024-03-23T09:45:06;95040.84;;;12.85;61.99
5500;BME280;2772;42.700;23.304;2024-03-23T09:47:37;95043.97;;;12.87;60.82
5500;BME280;2772;42.700;23.304;2024-03-23T09:50:05;95026.38;;;12.86;62.10
5500;BME280;2772;42.700;23.304;2024-03-23T09:52:34;95023.97;;;13.02;61.00
5500;BME280;2772;42.700;23.304;2024-03-23T09:55:00;95026.72;;;13.14;61.75
5500;BME280;2772;42.700;23.304;2024-03-23T09:57:27;95023.81;;;13.27;59.09
5500;BME280;2772;42.700;23.304;2024-03-23T09:59:52;95015.56;;;13.41;63.54
5500;BME280;2772;42.700;23.304;2024-03-23T10:02:21;95013.59;;;13.50;61.30
5500;BME280;2772;42.700;23.304;2024-03-23T10:04:47;95005.75;;;13.65;62.31
5500;BME280;2772;42.700;23.304;2024-03-23T10:07:19;94999.56;;;13.73;58.59
5500;BME280;2772;42.700;23.304;2024-03-23T10:09:45;94994.38;;;13.89;62.76
5500;BME280;2772;42.700;23.304;2024-03-23T10:12:16;94999.31;;;13.99;60.88
5500;BME280;2772;42.700;23.304;2024-03-23T10:14:43;94991.00;;;14.12;59.51
5500;BME280;2772;42.700;23.304;2024-03-23T10:17:12;94985.53;;;14.21;58.15
5500;BME280;2772;42.700;23.304;2024-03-23T10:19:39;94984.69;;;14.29;56.82
5500;BME280;2772;42.700;23.304;2024-03-23T10:22:07;94977.44;;;14.29;54.51
5500;BME280;2772;42.700;23.304;2024-03-23T10:24:34;94972.75;;;14.26;53.90
5500;BME280;2772;42.700;23.304;2024-03-23T10:27:01;94968.63;;;14.29;53.33
5500;BME280;2772;42.700;23.304;2024-03-23T10:29:30;94967.06;;;14.28;52.78
5500;BME280;2772;42.700;23.304;2024-03-23T10:32:07;94953.00;;;14.31;52.37
5500;BME280;2772;42.700;23.304;2024-03-23T10:34:36;94954.91;;;14.43;51.89
5500;BME280;2772;42.700;23.304;2024-03-23T10:37:03;94957.47;;;14.51;51.47
5500;BME280;2772;42.700;23.304;2024-03-23T10:39:36;94954.59;;;14.56;50.38
5500;BME280;2772;42.700;23.304;2024-03-23T10:42:04;94937.28;;;14.66;51.28
5500;BME280;2772;42.700;23.304;2024-03-23T10:44:32;94935.47;;;14.70;51.10
5500;BME280;2772;42.700;23.304;2024-03-23T10:47:01;94929.22;;;14.78;51.30
5500;BME280;2772;42.700;23.304;2024-03-23T10:49:30;94923.19;;;14.81;51.34
5500;BME280;2772;42.700;23.304;2024-03-23T10:51:58;94919.16;;;14.87;50.75
5500;BME280;2772;42.700;23.304;2024-03-23T10:54:24;94911.34;;;14.94;49.78
5500;BME280;2772;42.700;23.304;2024-03-23T10:56:56;94909.44;;;14.82;49.83
5500;BME280;2772;42.700;23.304;2024-03-23T10:59:23;94917.38;;;14.91;49.63
5500;BME280;2772;42.700;23.304;2024-03-23T11:01:59;94889.78;;;14.90;48.85
5500;BME280;2772;42.700;23.304;2024-03-23T11:04:32;94888.06;;;14.98;51.14
5500;BME280;2772;42.700;23.304;2024-03-23T11:06:59;94878.44;;;15.09;52.28
5500;BME280;2772;42.700;23.304;2024-03-23T11:09:41;94869.81;;;15.15;48.45
5500;BME280;2772;42.700;23.304;2024-03-23T11:12:41;94870.00;;;15.22;47.59
5500;BME280;2772;42.700;23.304;2024-03-23T11:15:11;94866.63;;;15.25;49.58
5500;BME280;2772;42.700;23.304;2024-03-23T11:17:37;94857.25;;;15.31;48.09
5500;BME280;2772;42.700;23.304;2024-03-23T11:20:06;94851.53;;;15.33;49.01
5500;BME280;2772;42.700;23.304;2024-03-23T11:22:42;94841.34;;;15.38;50.50
5500;BME280;2772;42.700;23.304;2024-03-23T11:25:16;94847.34;;;15.47;48.45
5500;BME280;2772;42.700;23.304;2024-03-23T11:27:45;94836.03;;;15.54;47.54
5500;BME280;2772;42.700;23.304;2024-03-23T11:30:13;94829.09;;;15.53;46.62
5500;BME280;2772;42.700;23.304;2024-03-23T11:32:39;94836.91;;;15.58;45.91
5500;BME280;2772;42.700;23.304;2024-03-23T11:35:07;94829.72;;;15.62;46.85
5500;BME280;2772;42.700;23.304;2024-03-23T11:37:34;94830.22;;;15.67;45.80
5500;BME280;2772;42.700;23.304;2024-03-23T11:40:01;94816.56;;;15.72;45.93
5500;BME280;2772;42.700;23.304;2024-03-23T11:42:41;94820.13;;;15.76;45.21
5500;BME280;2772;42.700;23.304;2024-03-23T11:45:10;94802.38;;;15.72;44.71
5500;BME280;2772;42.700;23.304;2024-03-23T11:47:36;94795.63;;;15.78;44.79
5500;BME280;2772;42.700;23.304;2024-03-23T11:50:04;94796.13;;;15.83;45.69
5500;BME280;2772;42.700;23.304;2024-03-23T11:52:30;94788.25;;;15.91;44.81
5500;BME280;2772;42.700;23.304;2024-03-23T11:55:03;94788.50;;;16.01;45.98
5500;BME280;2772;42.700;23.304;2024-03-23T11:57:29;94779.06;;;16.07;45.26
5500;BME280;2772;42.700;23.304;2024-03-23T11:59:56;94762.75;;;16.16;45.22
5500;BME280;2772;42.700;23.304;2024-03-23T12:02:23;94777.56;;;16.25;42.77
5500;BME280;2772;42.700;23.304;2024-03-23T12:04:50;94761.34;;;16.22;42.48
5500;BME280;2772;42.700;23.304;2024-03-23T12:07:17;94756.06;;;16.25;43.08
5500;BME280;2772;42.700;23.304;2024-03-23T12:09:44;94757.34;;;16.31;42.75
5500;BME280;2772;42.700;23.304;2024-03-23T12:12:14;94751.63;;;16.33;42.75
5500;BME280;2772;42.700;23.304;2024-03-23T12:14:42;94747.19;;;16.40;42.35
5500;BME280;2772;42.700;23.304;2024-03-23T12:17:11;94737.97;;;16.41;41.75
5500;BME280;2772;42.700;23.304;2024-03-23T12:19:41;94750.56;;;16.53;41.27
5500;BME280;2772;42.700;23.304;2024-03-23T12:22:07;94734.06;;;16.54;41.62
5500;BME280;2772;42.700;23.304;2024-03-23T12:24:34;94728.47;;;16.63;39.92
5500;BME280;2772;42.700;23.304;2024-03-23T12:27:01;94733.22;;;16.69;38.35
5500;BME280;2772;42.700;23.304;2024-03-23T12:29:29;94722.91;;;16.71;39.43
5500;BME280;2772;42.700;23.304;2024-03-23T12:31:57;94726.06;;;16.77;40.32
5500;BME280;2772;42.700;23.304;2024-03-23T12:34:23;94720.06;;;16.83;39.63
5500;BME280;2772;42.700;23.304;2024-03-23T12:36:50;94705.50;;;16.84;39.91
5500;BME280;2772;42.700;23.304;2024-03-23T12:39:17;94707.41;;;16.84;39.68
5500;BME280;2772;42.700;23.304;2024-03-23T12:41:44;94711.59;;;16.81;38.11
5500;BME280;2772;42.700;23.304;2024-03-23T12:44:10;94706.88;;;16.78;38.89
5500;BME280;2772;42.700;23.304;2024-03-23T12:46:37;94697.97;;;16.74;35.24
5500;BME280;2772;42.700;23.304;2024-03-23T12:49:05;94695.44;;;16.81;35.62
5500;BME280;2772;42.700;23.304;2024-03-23T12:51:31;94691.38;;;16.91;35.66
5500;BME280;2772;42.700;23.304;2024-03-23T12:53:59;94676.81;;;16.92;35.26
5500;BME280;2772;42.700;23.304;2024-03-23T12:56:25;94681.22;;;17.03;34.32
5500;BME280;2772;42.700;23.304;2024-03-23T12:58:53;94671.63;;;17.02;32.84
5500;BME280;2772;42.700;23.304;2024-03-23T13:01:20;94681.09;;;17.15;31.79
5500;BME280;2772;42.700;23.304;2024-03-23T13:03:47;94669.59;;;17.18;31.91
5500;BME280;2772;42.700;23.304;2024-03-23T13:06:13;94678.56;;;17.26;32.82
5500;BME280;2772;42.700;23.304;2024-03-23T13:08:40;94663.69;;;17.32;32.29
5500;BME280;2772;42.700;23.304;2024-03-23T13:11:07;94654.16;;;17.38;31.23
5500;BME280;2772;42.700;23.304;2024-03-23T13:13:34;94660.75;;;17.40;31.33
5500;BME280;2772;42.700;23.304;2024-03-23T13:16:00;94657.00;;;17.45;31.40
5500;BME280;2772;42.700;23.304;2024-03-23T13:18:27;94646.41;;;17.56;31.40
5500;BME280;2772;42.700;23.304;2024-03-23T13:20:53;94657.28;;;17.63;31.30
5500;BME280;2772;42.700;23.304;2024-03-23T13:23:20;94647.19;;;17.56;30.79
5500;BME280;2772;42.700;23.304;2024-03-23T13:25:50;94639.00;;;17.49;30.82
5500;BME280;2772;42.700;23.304;2024-03-23T13:28:19;94641.81;;;17.56;34.15
5500;BME280;2772;42.700;23.304;2024-03-23T13:30:52;94635.22;;;17.54;31.75
5500;BME280;2772;42.700;23.304;2024-03-23T13:33:19;94634.97;;;17.62;33.08
5500;BME280;2772;42.700;23.304;2024-03-23T13:35:51;94635.41;;;17.64;33.08
5500;BME280;2772;42.700;23.304;2024-03-23T13:38:18;94633.41;;;17.61;32.13
5500;BME280;2772;42.700;23.304;2024-03-23T13:40:51;94617.59;;;17.60;31.32
5500;BME280;2772;42.700;23.304;2024-03-23T13:43:19;94615.34;;;17.62;31.99
5500;BME280;2772;42.700;23.304;2024-03-23T13:45:46;94624.25;;;17.66;31.50
5500;BME280;2772;42.700;23.304;2024-03-23T13:48:13;94606.94;;;17.67;32.75
5500;BME280;2772;42.700;23.304;2024-03-23T13:50:40;94612.13;;;17.79;33.19
5500;BME280;2772;42.700;23.304;2024-03-23T13:53:06;94611.00;;;17.80;32.26
5500;BME280;2772;42.700;23.304;2024-03-23T13:55:33;94606.00;;;17.82;31.91
5500;BME280;2772;42.700;23.304;2024-03-23T13:58:00;94607.88;;;17.78;32.09
5500;BME280;2772;42.700;23.304;2024-03-23T14:00:27;94602.50;;;17.78;32.11
5500;BME280;2772;42.700;23.304;2024-03-23T14:02:54;94606.28;;;17.73;32.09
5500;BME280;2772;42.700;23.304;2024-03-23T14:05:19;94600.63;;;17.82;32.47